createdAt,value
2017-07-07T00:00:18.361Z,40.00
2017-07-07T00:02:44.724Z,38.37
2017-07-07T00:05:11.733Z,33.00
2017-07-07T00:07:38.126Z,35.53
2017-07-07T00:10:04.508Z,34.70
2017-07-07T00:12:30.895Z,35.03
2017-07-07T00:14:57.281Z,38.33
2017-07-07T00:17:23.681Z,33.97
2017-07-07T00:19:50.354Z,38.47
2017-07-07T00:22:16.793Z,30.97
2017-07-07T00:24:43.181Z,33.40
2017-07-07T00:27:09.831Z,33.40
2017-07-07T00:29:36.345Z,32.07
2017-07-07T00:32:02.801Z,33.50
2017-07-07T00:34:29.262Z,32.67
2017-07-07T00:36:55.635Z,33.90
2017-07-07T00:39:22.376Z,32.33
2017-07-07T00:41:48.737Z,30.00
2017-07-07T00:44:15.098Z,35.07
2017-07-07T00:46:41.973Z,34.90
2017-07-07T00:49:08.396Z,31.07
2017-07-07T00:51:34.759Z,34.50
2017-07-07T00:54:01.076Z,33.73
2017-07-07T00:56:27.423Z,33.30
2017-07-07T00:58:53.779Z,33.33
2017-07-07T01:01:20.133Z,35.37
2017-07-07T01:03:46.491Z,35.30
2017-07-07T01:06:12.826Z,38.40
2017-07-07T01:08:39.180Z,30.90
2017-07-07T01:11:05.661Z,38.00
2017-07-07T01:13:32.035Z,34.30
2017-07-07T01:15:58.416Z,34.17
2017-07-07T01:18:24.794Z,31.80
2017-07-07T01:20:51.137Z,31.60
2017-07-07T01:23:17.488Z,32.87
2017-07-07T01:25:43.855Z,37.27
2017-07-07T01:28:10.225Z,34.50
2017-07-07T01:30:36.653Z,35.50
2017-07-07T01:33:03.040Z,31.10
2017-07-07T01:35:29.433Z,31.40
2017-07-07T01:37:55.836Z,34.30
2017-07-07T01:40:22.201Z,35.00
2017-07-07T01:42:48.590Z,33.43
2017-07-07T01:45:14.975Z,33.27
2017-07-07T01:47:41.354Z,30.70
2017-07-07T01:50:07.814Z,33.50
2017-07-07T01:52:34.199Z,30.27
2017-07-07T01:55:00.559Z,31.80
2017-07-07T01:57:26.979Z,31.50
2017-07-07T01:59:53.625Z,28.63
2017-07-07T02:02:19.988Z,26.47
2017-07-07T02:04:46.382Z,28.73
2017-07-07T02:07:12.763Z,28.50
2017-07-07T02:09:39.140Z,27.67
2017-07-07T02:12:05.507Z,30.70
2017-07-07T02:14:31.893Z,28.57
2017-07-07T02:16:58.379Z,24.23
2017-07-07T02:19:24.753Z,25.37
2017-07-07T02:21:51.168Z,26.23
2017-07-07T02:24:17.556Z,23.37
2017-07-07T02:26:43.911Z,23.27
2017-07-07T02:29:10.312Z,25.53
2017-07-07T02:31:36.673Z,21.07
2017-07-07T02:34:03.034Z,21.77
2017-07-07T02:36:29.425Z,23.03
2017-07-07T02:38:55.784Z,22.13
2017-07-07T02:41:22.140Z,19.80
2017-07-07T02:43:48.493Z,21.40
2017-07-07T02:46:14.857Z,21.20
2017-07-07T02:48:41.212Z,19.07
2017-07-07T02:51:07.605Z,19.90
2017-07-07T02:53:33.971Z,22.97
2017-07-07T02:56:00.337Z,23.03
2017-07-07T02:58:26.721Z,23.30
2017-07-07T03:00:53.104Z,25.80
2017-07-07T03:03:19.472Z,24.30
2017-07-07T03:05:45.851Z,25.33
2017-07-07T03:08:12.188Z,23.20
2017-07-07T03:10:38.548Z,19.30
2017-07-07T03:13:04.969Z,22.50
2017-07-07T03:15:31.338Z,20.07
2017-07-07T03:17:57.703Z,20.83
2017-07-07T03:20:24.070Z,21.10
2017-07-07T03:22:50.429Z,15.27
2017-07-07T03:25:16.778Z,13.60
2017-07-07T03:27:43.144Z,11.67
2017-07-07T03:30:09.495Z,14.40
2017-07-07T03:32:35.840Z,11.83
2017-07-07T03:35:02.211Z,12.93
2017-07-07T03:37:28.564Z,12.27
2017-07-07T03:39:54.933Z,12.20
2017-07-07T03:42:21.321Z,12.77
2017-07-07T03:44:47.678Z,11.40
2017-07-07T03:47:14.027Z,14.50
2017-07-07T03:49:40.364Z,14.77
2017-07-07T03:52:06.724Z,14.90
2017-07-07T03:54:33.085Z,18.30
2017-07-07T03:56:59.453Z,16.20
2017-07-07T03:59:25.811Z,14.50
2017-07-07T04:01:52.166Z,14.83
2017-07-07T04:04:18.529Z,16.97
2017-07-07T04:06:44.883Z,17.50
2017-07-07T04:09:11.259Z,17.00
2017-07-07T04:11:37.615Z,17.63
2017-07-07T04:14:03.987Z,19.00
2017-07-07T04:16:30.385Z,20.03
2017-07-07T04:18:56.772Z,17.70
2017-07-07T04:21:23.127Z,21.40
2017-07-07T04:23:49.504Z,20.90
2017-07-07T04:26:15.840Z,21.93
2017-07-07T04:28:42.206Z,22.03
2017-07-07T04:31:08.594Z,22.40
2017-07-07T04:33:34.949Z,23.40
2017-07-07T04:36:05.298Z,22.63
2017-07-07T04:38:33.123Z,25.97
2017-07-07T04:40:59.485Z,26.30
2017-07-07T04:43:25.866Z,28.70
2017-07-07T04:45:52.214Z,25.50
2017-07-07T04:48:18.596Z,27.17
2017-07-07T04:50:44.982Z,23.77
2017-07-07T04:53:11.358Z,22.73
2017-07-07T04:55:37.738Z,25.57
2017-07-07T04:58:05.109Z,27.23
2017-07-07T05:00:31.663Z,27.20
2017-07-07T05:02:58.188Z,23.07
2017-07-07T05:05:25.823Z,26.10
2017-07-07T05:07:52.786Z,23.30
2017-07-07T05:10:19.385Z,26.43
2017-07-07T05:12:45.868Z,25.90
2017-07-07T05:15:12.277Z,27.93
2017-07-07T05:17:39.684Z,23.90
2017-07-07T05:20:11.203Z,24.63
2017-07-07T05:22:37.595Z,24.67
2017-07-07T05:25:04.035Z,23.20
2017-07-07T05:27:30.508Z,21.73
2017-07-07T05:29:56.915Z,22.87
2017-07-07T05:32:24.226Z,22.00
2017-07-07T05:34:50.634Z,21.53
2017-07-07T05:37:17.082Z,16.77
2017-07-07T05:39:43.528Z,20.80
2017-07-07T05:42:09.972Z,19.40
2017-07-07T05:44:36.500Z,21.07
2017-07-07T05:47:02.990Z,18.20
2017-07-07T05:49:29.949Z,14.33
2017-07-07T05:51:56.465Z,12.90
2017-07-07T05:54:23.009Z,13.00
2017-07-07T05:59:22.020Z,11.27
2017-07-07T06:01:48.549Z,10.63
2017-07-07T06:04:15.035Z,11.10
2017-07-07T06:06:41.619Z,9.40
2017-07-07T06:09:08.184Z,9.97
2017-07-07T06:11:34.704Z,9.60
2017-07-07T06:14:01.266Z,8.97
2017-07-07T06:16:27.561Z,9.57
2017-07-07T06:18:53.743Z,9.97
2017-07-07T06:21:19.923Z,9.50
2017-07-07T06:23:46.342Z,9.57
2017-07-07T06:26:12.939Z,8.13
2017-07-07T06:28:39.584Z,8.43
2017-07-07T06:31:06.030Z,6.80
2017-07-07T06:33:33.334Z,6.90
2017-07-07T06:35:59.877Z,6.10
2017-07-07T06:38:31.495Z,5.63
2017-07-07T06:40:58.025Z,5.53
2017-07-07T06:43:24.469Z,4.73
2017-07-07T06:45:50.917Z,5.10
2017-07-07T06:48:17.471Z,4.93
2017-07-07T06:50:43.872Z,5.40
2017-07-07T06:53:11.338Z,4.63
2017-07-07T06:55:37.760Z,5.37
2017-07-07T06:58:04.312Z,4.60
2017-07-07T07:00:30.827Z,4.80
2017-07-07T07:02:57.269Z,5.40
2017-07-07T07:05:23.722Z,5.53
2017-07-07T07:07:50.252Z,5.07
2017-07-07T07:10:16.697Z,4.60
2017-07-07T07:12:43.100Z,4.27
2017-07-07T07:15:09.558Z,3.87
2017-07-07T07:17:36.121Z,4.07
2017-07-07T07:20:02.558Z,3.93
2017-07-07T07:22:28.962Z,3.97
2017-07-07T07:24:55.454Z,3.67
2017-07-07T07:27:21.955Z,4.13
2017-07-07T07:29:48.416Z,4.00
2017-07-07T07:32:14.819Z,4.40
2017-07-07T07:34:41.229Z,3.70
2017-07-07T07:37:07.656Z,4.20
2017-07-07T07:39:34.036Z,4.30
2017-07-07T07:42:00.479Z,4.37
2017-07-07T07:44:26.893Z,3.80
2017-07-07T07:46:53.271Z,4.30
2017-07-07T07:49:19.710Z,3.83
2017-07-07T07:51:46.210Z,4.80
2017-07-07T07:54:12.649Z,4.97
2017-07-07T07:56:39.475Z,4.37
2017-07-07T07:59:05.915Z,4.93
2017-07-07T08:01:32.371Z,4.97
2017-07-07T08:03:58.853Z,5.43
2017-07-07T08:06:25.245Z,5.70
2017-07-07T08:08:51.719Z,5.20
2017-07-07T08:11:18.097Z,5.53
2017-07-07T08:13:44.546Z,6.07
2017-07-07T08:16:10.956Z,6.13
2017-07-07T08:18:37.538Z,6.30
2017-07-07T08:21:03.956Z,5.40
2017-07-07T08:23:30.341Z,5.50
2017-07-07T08:25:56.812Z,4.73
2017-07-07T08:28:23.252Z,6.27
2017-07-07T08:30:49.657Z,5.60
2017-07-07T08:33:16.118Z,5.13
2017-07-07T08:35:42.523Z,5.70
2017-07-07T08:38:08.999Z,6.10
2017-07-07T08:40:35.501Z,5.60
2017-07-07T08:43:01.951Z,5.50
2017-07-07T08:45:28.359Z,5.70
2017-07-07T08:47:55.214Z,4.93
2017-07-07T08:50:21.645Z,5.00
2017-07-07T08:52:48.112Z,5.57
2017-07-07T08:55:14.517Z,5.47
2017-07-07T08:57:41.482Z,6.07
2017-07-07T09:00:07.892Z,5.80
2017-07-07T09:02:34.341Z,6.13
2017-07-07T09:05:00.789Z,5.40
2017-07-07T09:07:27.204Z,5.77
2017-07-07T09:09:53.589Z,5.27
2017-07-07T09:12:19.993Z,5.67
2017-07-07T09:14:46.781Z,5.90
2017-07-07T09:17:13.192Z,5.90
2017-07-07T09:19:39.629Z,6.33
2017-07-07T09:22:06.034Z,5.10
2017-07-07T09:24:32.468Z,5.90
2017-07-07T09:26:58.866Z,5.77
2017-07-07T09:29:25.288Z,6.13
2017-07-07T09:31:51.694Z,5.00
2017-07-07T09:34:18.109Z,5.90
2017-07-07T09:36:44.463Z,5.90
2017-07-07T09:39:10.884Z,7.07
2017-07-07T09:41:37.373Z,6.20
2017-07-07T09:44:04.005Z,6.77
2017-07-07T09:46:30.500Z,6.87
2017-07-07T09:48:56.876Z,7.57
2017-07-07T09:51:23.305Z,7.50
2017-07-07T09:53:49.703Z,7.57
2017-07-07T09:56:16.079Z,7.20
2017-07-07T09:58:42.466Z,7.33
2017-07-07T10:01:08.888Z,7.60
2017-07-07T10:03:35.532Z,7.33
2017-07-07T10:06:01.945Z,8.10
2017-07-07T10:08:28.369Z,7.63
2017-07-07T10:10:54.793Z,8.27
2017-07-07T10:13:21.190Z,7.73
2017-07-07T10:15:47.827Z,7.70
2017-07-07T10:18:14.288Z,8.17
2017-07-07T10:20:40.738Z,8.27
2017-07-07T10:23:07.126Z,8.60
2017-07-07T10:25:33.528Z,12.07
2017-07-07T10:27:59.931Z,9.60
2017-07-07T10:30:26.332Z,9.23
2017-07-07T10:32:52.712Z,9.20
2017-07-07T10:35:19.259Z,9.70
2017-07-07T10:37:45.661Z,10.00
2017-07-07T10:40:12.157Z,9.87
2017-07-07T10:42:38.556Z,9.40
2017-07-07T10:45:04.982Z,10.63
2017-07-07T10:47:31.408Z,10.80
2017-07-07T10:49:57.829Z,10.60
2017-07-07T10:52:24.264Z,10.43
2017-07-07T10:54:55.199Z,11.53
2017-07-07T10:57:26.889Z,11.33
2017-07-07T10:59:53.315Z,10.50
2017-07-07T11:02:19.723Z,11.50
2017-07-07T11:04:46.148Z,10.90
2017-07-07T11:07:12.562Z,11.47
2017-07-07T11:09:39.042Z,10.97
2017-07-07T11:12:05.446Z,10.70
2017-07-07T11:14:31.864Z,11.80
2017-07-07T11:16:58.255Z,10.73
2017-07-07T11:19:24.631Z,14.10
2017-07-07T11:21:51.071Z,12.33
2017-07-07T11:24:17.451Z,13.30
2017-07-07T11:26:43.852Z,14.93
2017-07-07T11:29:10.266Z,12.33
2017-07-07T11:31:36.699Z,11.40
2017-07-07T11:34:03.126Z,12.93
2017-07-07T11:36:29.515Z,11.07
2017-07-07T11:38:55.922Z,13.47
2017-07-07T11:41:22.333Z,12.23
2017-07-07T11:43:48.699Z,10.87
2017-07-07T11:46:15.073Z,10.93
2017-07-07T11:48:41.455Z,12.73
2017-07-07T11:51:07.889Z,11.63
2017-07-07T11:53:34.306Z,11.90
2017-07-07T11:56:00.741Z,12.10
2017-07-07T11:58:27.179Z,10.80
2017-07-07T12:00:53.651Z,11.23
2017-07-07T12:03:20.052Z,12.20
2017-07-07T12:05:46.978Z,13.40
2017-07-07T12:08:19.685Z,13.40
2017-07-07T12:10:46.183Z,12.87
2017-07-07T12:13:12.614Z,13.70
2017-07-07T12:15:39.081Z,15.30
2017-07-07T12:18:05.503Z,12.90
2017-07-07T12:20:31.920Z,13.10
2017-07-07T12:22:58.298Z,12.27
2017-07-07T12:25:24.701Z,13.57
2017-07-07T12:27:51.109Z,12.73
2017-07-07T12:30:17.525Z,13.27
2017-07-07T12:32:44.043Z,12.47
2017-07-07T12:35:10.559Z,12.27
2017-07-07T12:37:36.971Z,12.20
2017-07-07T12:40:03.654Z,11.40
2017-07-07T12:42:30.117Z,10.97
2017-07-07T12:44:56.544Z,11.83
2017-07-07T12:47:22.940Z,12.13
2017-07-07T12:49:49.329Z,10.90
2017-07-07T12:52:15.736Z,10.43
2017-07-07T12:54:42.147Z,10.27
2017-07-07T12:57:08.611Z,9.80
2017-07-07T12:59:35.026Z,10.20
2017-07-07T13:02:01.393Z,8.23
2017-07-07T13:04:27.825Z,8.40
2017-07-07T13:06:54.169Z,9.00
2017-07-07T13:09:20.574Z,8.37
2017-07-07T13:11:46.908Z,8.00
2017-07-07T13:14:13.320Z,8.20
2017-07-07T13:16:52.448Z,8.13
2017-07-07T13:19:18.817Z,8.00
2017-07-07T13:21:45.253Z,9.10
2017-07-07T13:24:11.656Z,10.37
2017-07-07T13:26:38.029Z,11.67
2017-07-07T13:29:04.399Z,12.90
2017-07-07T13:31:30.804Z,15.43
2017-07-07T13:33:57.215Z,14.60
2017-07-07T13:36:23.613Z,13.90
2017-07-07T13:38:49.975Z,13.00
2017-07-07T13:41:16.368Z,11.90
2017-07-07T13:43:42.756Z,11.57
2017-07-07T13:46:09.153Z,13.30
2017-07-07T13:48:35.547Z,13.03
2017-07-07T13:51:01.907Z,12.20
2017-07-07T13:53:28.410Z,12.70
2017-07-07T13:55:54.820Z,12.57
2017-07-07T13:58:21.195Z,13.80
2017-07-07T14:00:47.600Z,14.50
2017-07-07T14:03:14.182Z,15.37
2017-07-07T14:05:40.564Z,16.47
2017-07-07T14:08:06.920Z,14.70
2017-07-07T14:10:33.341Z,13.10
2017-07-07T14:12:59.701Z,11.23
2017-07-07T14:15:26.085Z,10.10
2017-07-07T14:17:52.510Z,8.57
2017-07-07T14:20:19.558Z,13.50
2017-07-07T14:22:46.000Z,16.83
2017-07-07T14:25:12.451Z,13.13
2017-07-07T14:27:38.816Z,14.93
2017-07-07T14:30:05.219Z,14.60
2017-07-07T14:32:31.606Z,14.53
2017-07-07T14:34:58.011Z,14.60
2017-07-07T14:37:24.371Z,14.60
2017-07-07T14:39:50.754Z,13.70
2017-07-07T14:42:17.283Z,15.27
2017-07-07T14:44:43.752Z,15.27
2017-07-07T14:47:10.161Z,14.43
2017-07-07T14:49:36.601Z,10.83
2017-07-07T14:52:02.973Z,10.43
2017-07-07T14:54:29.992Z,10.87
2017-07-07T14:56:57.767Z,9.23
2017-07-07T14:59:24.327Z,9.03
2017-07-07T15:01:50.693Z,9.05
2017-07-07T15:04:17.080Z,9.50
2017-07-07T15:06:44.542Z,8.90
2017-07-07T15:09:10.903Z,8.77
2017-07-07T15:11:37.263Z,8.20
2017-07-07T15:14:03.631Z,8.23
2017-07-07T15:16:30.031Z,8.67
2017-07-07T15:18:56.401Z,8.07
2017-07-07T15:21:22.802Z,7.83
2017-07-07T15:23:49.922Z,7.97
2017-07-07T15:26:16.324Z,7.33
2017-07-07T15:28:42.715Z,8.30
2017-07-07T15:31:09.097Z,7.53
2017-07-07T15:33:35.476Z,8.23
2017-07-07T15:36:01.882Z,6.50
2017-07-07T15:38:28.292Z,6.83
2017-07-07T15:40:54.688Z,7.77
2017-07-07T15:43:21.065Z,7.40
2017-07-07T15:45:47.553Z,6.70
2017-07-07T15:48:13.927Z,6.57
2017-07-07T15:50:40.372Z,7.27
2017-07-07T15:53:06.744Z,6.40
2017-07-07T15:55:33.142Z,7.50
2017-07-07T15:57:59.541Z,6.90
2017-07-07T16:00:25.923Z,6.30
2017-07-07T16:02:52.309Z,6.40
2017-07-07T16:05:18.673Z,6.50
2017-07-07T16:07:45.091Z,5.83
2017-07-07T16:10:11.537Z,5.63
2017-07-07T16:12:37.889Z,5.07
2017-07-07T16:15:04.247Z,4.90
2017-07-07T16:17:30.631Z,4.70
2017-07-07T16:19:57.038Z,4.87
2017-07-07T16:22:23.421Z,4.00
2017-07-07T16:24:49.807Z,5.47
2017-07-07T16:27:16.167Z,5.57
2017-07-07T16:29:42.550Z,5.50
2017-07-07T16:32:09.019Z,4.53
2017-07-07T16:34:35.371Z,4.00
2017-07-07T16:37:01.763Z,4.87
2017-07-07T16:39:28.130Z,4.40
2017-07-07T16:41:54.507Z,5.00
2017-07-07T16:44:20.904Z,4.50
2017-07-07T16:46:47.316Z,7.40
2017-07-07T16:49:13.728Z,7.40
2017-07-07T16:51:40.102Z,8.93
2017-07-07T16:54:06.484Z,8.00
2017-07-07T16:56:32.842Z,7.50
2017-07-07T16:58:59.218Z,7.63
2017-07-07T17:01:25.602Z,7.57
2017-07-07T17:03:51.973Z,6.43
2017-07-07T17:06:18.353Z,7.93
2017-07-07T17:08:45.428Z,8.90
2017-07-07T17:11:11.831Z,6.70
2017-07-07T17:13:38.213Z,8.13
2017-07-07T17:16:04.621Z,9.93
2017-07-07T17:18:31.080Z,8.23
2017-07-07T17:20:57.466Z,8.23
2017-07-07T17:23:23.808Z,8.73
2017-07-07T17:25:50.188Z,8.40
2017-07-07T17:28:16.571Z,7.90
2017-07-07T17:30:42.949Z,8.93
2017-07-07T17:33:09.309Z,14.17
2017-07-07T17:35:35.707Z,9.43
2017-07-07T17:38:02.087Z,9.00
2017-07-07T17:40:28.481Z,12.33
2017-07-07T17:42:54.857Z,10.80
2017-07-07T17:45:21.275Z,9.30
2017-07-07T17:47:47.723Z,10.93
2017-07-07T17:50:14.094Z,8.07
2017-07-07T17:52:40.445Z,9.27
2017-07-07T17:55:06.800Z,10.17
2017-07-07T17:57:33.152Z,11.23
2017-07-07T17:59:59.494Z,7.73
2017-07-07T18:02:25.877Z,8.20
2017-07-07T18:04:52.303Z,7.03
2017-07-07T18:07:18.664Z,7.27
2017-07-07T18:09:45.033Z,6.10
2017-07-07T18:12:11.445Z,6.83
2017-07-07T18:14:37.784Z,6.60
2017-07-07T18:17:04.163Z,6.00
2017-07-07T18:19:30.535Z,6.27
2017-07-07T18:21:56.879Z,6.90
2017-07-07T18:24:23.212Z,7.53
2017-07-07T18:26:49.654Z,5.80
2017-07-07T18:29:16.002Z,6.00
2017-07-07T18:31:42.381Z,5.00
2017-07-07T18:34:08.773Z,5.57
2017-07-07T18:36:35.151Z,4.90
2017-07-07T18:39:01.550Z,6.20
2017-07-07T18:41:27.930Z,5.57
2017-07-07T18:43:54.290Z,5.30
2017-07-07T18:46:20.670Z,5.67
2017-07-07T18:48:47.065Z,5.57
2017-07-07T18:51:13.453Z,5.23
2017-07-07T18:53:39.929Z,4.20
2017-07-07T18:56:06.299Z,4.10
2017-07-07T18:58:32.677Z,4.43
2017-07-07T19:00:59.078Z,4.33
2017-07-07T19:03:25.473Z,3.27
2017-07-07T19:05:51.835Z,3.83
2017-07-07T19:08:18.232Z,3.50
2017-07-07T19:10:44.582Z,3.80
2017-07-07T19:13:10.985Z,3.83
2017-07-07T19:15:37.431Z,4.17
2017-07-07T19:18:03.817Z,4.40
2017-07-07T19:20:30.266Z,4.70
2017-07-07T19:22:56.626Z,4.23
2017-07-07T19:25:23.033Z,4.97
2017-07-07T19:27:49.413Z,4.33
2017-07-07T19:30:15.814Z,4.60
2017-07-07T19:32:42.190Z,5.20
2017-07-07T19:35:08.668Z,4.70
2017-07-07T19:37:35.020Z,5.47
2017-07-07T19:40:01.383Z,5.43
2017-07-07T19:42:27.767Z,5.47
2017-07-07T19:44:54.127Z,5.03
2017-07-07T19:47:20.507Z,8.00
2017-07-07T19:49:46.871Z,8.23
2017-07-07T19:52:13.247Z,8.27
2017-07-07T19:54:39.631Z,8.37
2017-07-07T19:57:05.988Z,8.37
2017-07-07T19:59:32.380Z,9.30
2017-07-07T20:01:58.818Z,6.90
2017-07-07T20:04:25.241Z,7.43
2017-07-07T20:06:51.601Z,6.50
2017-07-07T20:09:17.960Z,6.60
2017-07-07T20:11:44.301Z,7.80
2017-07-07T20:14:10.663Z,8.93
2017-07-07T20:16:37.034Z,8.40
2017-07-07T20:19:03.409Z,8.10
2017-07-07T20:21:29.825Z,9.30
2017-07-07T20:23:56.231Z,10.47
2017-07-07T20:26:22.591Z,11.90
2017-07-07T20:28:48.996Z,11.63
2017-07-07T20:31:15.402Z,11.73
2017-07-07T20:33:41.787Z,12.17
2017-07-07T20:36:08.142Z,14.17
2017-07-07T20:38:34.495Z,12.40
2017-07-07T20:41:00.849Z,11.37
2017-07-07T20:43:27.256Z,11.00
2017-07-07T20:45:53.705Z,13.83
2017-07-07T20:48:20.096Z,12.00
2017-07-07T20:50:46.495Z,13.30
2017-07-07T20:53:12.891Z,12.53
2017-07-07T20:55:46.177Z,14.03
2017-07-07T20:58:12.570Z,14.70
2017-07-07T21:00:38.944Z,14.93
2017-07-07T21:03:05.334Z,14.30
2017-07-07T21:05:31.695Z,15.50
2017-07-07T21:07:58.071Z,12.63
2017-07-07T21:10:24.442Z,13.07
2017-07-07T21:12:57.340Z,11.77
2017-07-07T21:15:27.821Z,13.47
2017-07-07T21:40:48.321Z,10.90
2017-07-07T21:43:14.697Z,11.37
2017-07-07T21:45:41.188Z,12.00
2017-07-07T21:48:07.692Z,12.17
2017-07-07T21:50:34.102Z,14.47
2017-07-07T21:53:00.609Z,12.60
2017-07-07T21:55:26.978Z,17.40
2017-07-07T21:57:53.420Z,15.20
2017-07-07T22:00:19.801Z,13.67
2017-07-07T22:02:46.176Z,14.13
2017-07-07T22:05:12.551Z,13.97
2017-07-07T22:07:38.909Z,13.87
2017-07-07T22:10:05.397Z,14.73
2017-07-07T22:12:31.792Z,13.60
2017-07-07T22:14:58.216Z,13.53
2017-07-07T22:17:24.591Z,13.93
2017-07-07T22:19:51.007Z,14.30
2017-07-07T22:22:17.375Z,15.00
2017-07-07T22:24:43.759Z,14.17
2017-07-07T22:27:10.134Z,15.43
2017-07-07T22:29:36.523Z,15.30
2017-07-07T22:32:02.915Z,15.87
2017-07-07T22:34:29.338Z,13.33
2017-07-07T22:36:55.765Z,12.93
2017-07-07T22:39:22.169Z,14.10
2017-07-07T22:41:48.586Z,13.07
2017-07-07T22:44:15.011Z,14.77
2017-07-07T22:46:41.419Z,13.53
2017-07-07T22:49:07.865Z,12.40
2017-07-07T22:51:34.285Z,13.73
2017-07-07T22:54:00.691Z,14.77
2017-07-07T22:56:27.082Z,14.00
2017-07-07T22:58:53.487Z,14.80
2017-07-07T23:01:19.879Z,15.07
2017-07-07T23:03:46.274Z,14.23
2017-07-07T23:06:12.686Z,13.07
2017-07-07T23:08:39.087Z,14.00
2017-07-07T23:11:05.503Z,15.43
2017-07-07T23:13:31.853Z,15.57
2017-07-07T23:15:58.240Z,13.40
2017-07-07T23:18:24.627Z,13.87
2017-07-07T23:20:50.988Z,14.83
2017-07-07T23:23:17.335Z,15.60
2017-07-07T23:25:43.715Z,15.70
2017-07-07T23:28:10.097Z,17.23
2017-07-07T23:30:36.486Z,18.17
2017-07-07T23:33:02.876Z,18.63
2017-07-07T23:35:29.312Z,18.97
2017-07-07T23:37:55.737Z,17.47
2017-07-07T23:40:22.123Z,17.13
2017-07-07T23:42:48.551Z,17.47
2017-07-07T23:45:14.935Z,19.47
2017-07-07T23:47:41.346Z,16.97
2017-07-07T23:50:07.722Z,18.90
2017-07-07T23:52:34.117Z,17.50
2017-07-07T23:55:00.510Z,19.30
2017-07-07T23:57:26.933Z,18.07
2017-07-07T23:59:53.329Z,20.07
